Time;durP1;ratioP1;P1;durP2;ratioP2;P2;SDS_P1;SDS_P2;PMS_P1;PMS_P2;Temp;Humidity;BMP_temperature;BMP_pressure;BME280_temperature;BME280_humidity;BME280_pressure;Samples;Min_cycle;Max_cycle;Signal;HPM_P1;HPM_P2
2021/07/22 14:30:14;;;;;;;10.10;5.30;;;34.70;30.90;;;;;;6256104;22;1700402;31
2021/07/22 14:32:44;;;;;;;12.70;5.43;;;35.30;30.20;;;;;;6292707;22;20441;-77
2021/07/22 14:35:11;;;;;;;118.70;10.98;;;35.80;29.60;;;;;;6277123;22;20023;-77
2021/07/22 14:37:39;;;;;;;41.30;7.72;;;36.20;29.30;;;;;;6305024;22;20610;-78
2021/07/22 14:40:07;;;;;;;21.23;5.50;;;36.80;28.40;;;;;;6306341;22;20022;-77
2021/07/22 14:42:35;;;;;;;14.45;5.55;;;37.10;27.90;;;;;;6305634;22;20012;-76
2021/07/22 14:45:03;;;;;;;11.73;5.50;;;37.20;27.50;;;;;;6306748;22;20451;-77
2021/07/22 14:47:35;;;;;;;20.30;5.95;;;37.40;27.50;;;;;;6303194;22;20022;-77
2021/07/22 14:50:05;;;;;;;10.57;5.20;;;37.80;26.80;;;;;;6304819;22;20019;-79
2021/07/22 14:52:33;;;;;;;12.40;5.30;;;37.90;26.80;;;;;;6306670;22;20011;-76
2021/07/22 14:55:01;;;;;;;55.47;7.00;;;37.50;27.10;;;;;;6306739;22;20023;-78
2021/07/22 14:57:29;;;;;;;84.18;8.95;;;36.60;27.30;;;;;;6302681;22;20019;-78
2021/07/22 14:59:56;;;;;;;10.95;5.43;;;35.80;28.10;;;;;;6303494;22;20441;-79
2021/07/22 15:02:24;;;;;;;18.15;5.30;;;35.00;29.10;;;;;;6295727;22;20028;-79
2021/07/22 15:04:54;;;;;;;32.00;7.05;;;34.50;30.10;;;;;;6302660;22;20011;-78
2021/07/22 15:07:21;;;;;;;50.70;8.80;;;34.60;30.90;;;;;;6276629;22;20019;-78
2021/07/22 15:09:49;;;;;;;74.93;9.13;;;35.30;30.70;;;;;;6305366;22;20015;-78
2021/07/22 15:12:18;;;;;;;11.77;5.00;;;36.00;29.90;;;;;;6300524;22;20019;-77
2021/07/22 15:14:46;;;;;;;15.82;5.45;;;36.80;29.00;;;;;;6327878;22;20434;-79
2021/07/22 15:17:14;;;;;;;29.20;6.53;;;37.70;28.00;;;;;;6306210;22;20007;-77
2021/07/22 15:19:42;;;;;;;9.10;5.03;;;38.20;27.00;;;;;;6304569;22;20030;-76
2021/07/22 15:22:09;;;;;;;11.15;5.22;;;38.60;26.50;;;;;;6305474;22;20011;-76
2021/07/22 15:24:37;;;;;;;41.53;6.30;;;38.70;26.20;;;;;;6277934;22;20023;-78
2021/07/22 15:27:25;;;;;;;47.53;7.82;;;38.70;26.10;;;;;;5130304;27;20891;-75
2021/07/22 15:29:53;;;;;;;25.55;5.18;;;39.00;25.60;;;;;;5108280;28;20059;-76
2021/07/22 15:32:20;;;;;;;18.73;5.30;;;39.00;25.50;;;;;;5086719;28;20059;-77
2021/07/22 15:34:48;;;;;;;11.30;4.82;;;39.20;25.20;;;;;;5075409;28;20055;-77
2021/07/22 15:37:16;;;;;;;14.75;5.35;;;39.50;24.80;;;;;;5087238;28;20040;-77
2021/07/22 15:39:44;;;;;;;13.15;4.88;;;39.70;24.50;;;;;;5088876;28;20052;-77
2021/07/22 15:42:12;;;;;;;12.23;4.60;;;40.00;24.30;;;;;;5087072;28;20397;-77
2021/07/22 15:44:46;;;;;;;13.85;5.03;;;40.10;24.10;;;;;;5087438;28;20044;-77
2021/07/22 15:47:15;;;;;;;9.80;4.80;;;40.10;24.30;;;;;;5088708;28;20405;-78
2021/07/22 15:49:44;;;;;;;9.43;4.90;;;40.20;24.10;;;;;;5086713;28;20044;-77
2021/07/22 15:52:12;;;;;;;8.43;4.88;;;40.30;23.80;;;;;;5088117;28;20048;-75
2021/07/22 15:54:41;;;;;;;11.05;4.82;;;40.30;23.40;;;;;;5084020;28;20044;-77
2021/07/22 15:57:09;;;;;;;8.38;4.35;;;40.40;23.30;;;;;;5088410;28;20370;-75
2021/07/22 15:59:36;;;;;;;6.65;4.18;;;40.60;22.90;;;;;;5087036;28;20051;-76
2021/07/22 16:02:19;;;;;;;11.65;4.30;;;40.80;22.80;;;;;;5085938;28;20059;-76
2021/07/22 16:04:50;;;;;;;6.78;4.50;;;41.00;22.60;;;;;;5087789;28;20052;-76
2021/07/22 16:07:19;;;;;;;9.43;4.18;;;41.10;22.40;;;;;;5087062;28;20061;-75
2021/07/22 16:09:46;;;;;;;7.20;4.45;;;41.30;22.20;;;;;;5086328;28;20055;-78
2021/07/22 16:12:14;;;;;;;10.00;4.70;;;41.40;22.00;;;;;;5087028;28;20390;-77
2021/07/22 16:14:42;;;;;;;8.40;4.60;;;41.40;21.90;;;;;;5087050;28;20040;-76
2021/07/22 16:17:09;;;;;;;12.07;4.35;;;41.50;22.30;;;;;;5088708;28;20051;-78
2021/07/22 16:19:39;;;;;;;8.63;4.82;;;41.30;22.30;;;;;;5087751;28;20040;-77
2021/07/22 16:22:07;;;;;;;7.80;5.03;;;41.30;22.20;;;;;;5059383;28;20048;-77
2021/07/22 16:24:36;;;;;;;10.82;5.57;;;41.30;22.80;;;;;;5067770;28;20068;-77
2021/07/22 16:27:04;;;;;;;16.17;7.97;;;40.70;23.90;;;;;;5085861;28;20504;-77
2021/07/22 16:29:32;;;;;;;12.90;5.82;;;39.50;25.40;;;;;;5087016;28;20056;-76
2021/07/22 16:32:00;;;;;;;13.70;5.72;;;38.00;27.50;;;;;;5086624;28;20041;-76
2021/07/22 16:34:29;;;;;;;10.77;5.30;;;36.60;29.00;;;;;;5087518;28;20048;-77
2021/07/22 16:36:57;;;;;;;20.13;7.20;;;35.40;30.90;;;;;;5081502;28;20041;-76
2021/07/22 16:39:24;;;;;;;13.95;5.10;;;34.30;32.60;;;;;;5056321;28;20041;-77
2021/07/22 16:41:52;;;;;;;12.30;5.10;;;33.40;34.30;;;;;;5054559;28;20041;-77
2021/07/22 16:44:19;;;;;;;10.05;4.65;;;32.60;35.80;;;;;;5064567;28;20052;-76
2021/07/22 16:46:49;;;;;;;6.90;4.63;;;31.80;37.00;;;;;;5063287;28;20045;-77
2021/07/22 16:49:17;;;;;;;11.48;4.70;;;31.10;38.00;;;;;;5054963;28;20558;-77
2021/07/22 16:51:44;;;;;;;8.48;4.43;;;30.60;39.00;;;;;;5056378;28;20040;-77
2021/07/22 16:54:12;;;;;;;12.80;5.00;;;30.30;39.90;;;;;;5071827;28;20508;-77
2021/07/22 16:56:40;;;;;;;7.80;4.78;;;30.00;40.60;;;;;;5056125;28;20051;-77
2021/07/22 16:59:08;;;;;;;6.32;4.60;;;29.90;41.10;;;;;;5056493;28;20390;-78
2021/07/22 17:01:35;;;;;;;9.00;5.20;;;29.80;41.50;;;;;;5053003;28;20048;-77
2021/07/22 17:04:04;;;;;;;9.35;5.60;;;30.00;41.60;;;;;;5056513;28;20044;-77
2021/07/22 17:06:32;;;;;;;10.68;5.03;;;30.60;41.00;;;;;;5060269;28;20063;-77
2021/07/22 17:09:03;;;;;;;6.93;4.70;;;31.30;40.10;;;;;;5053584;28;20040;-78
2021/07/22 17:11:31;;;;;;;10.27;5.00;;;32.00;39.10;;;;;;5052690;28;20045;-78
2021/07/22 17:13:58;;;;;;;6.70;4.10;;;32.60;38.10;;;;;;5053723;28;20044;-78
2021/07/22 17:16:26;;;;;;;6.13;4.25;;;33.00;36.90;;;;;;5052793;28;20052;-78
2021/07/22 17:18:53;;;;;;;6.15;4.22;;;33.20;36.10;;;;;;5053806;28;20432;-76
2021/07/22 17:21:21;;;;;;;16.63;4.28;;;33.30;35.70;;;;;;5050905;28;20060;-76
2021/07/22 17:23:49;;;;;;;11.55;3.85;;;33.40;35.30;;;;;;5034483;28;20045;-76
2021/07/22 17:26:17;;;;;;;8.20;4.18;;;33.50;34.80;;;;;;5052767;28;20056;-78
2021/07/22 17:28:45;;;;;;;6.35;3.60;;;33.50;34.40;;;;;;5070533;28;20049;-77
2021/07/22 17:31:12;;;;;;;8.98;4.15;;;33.40;34.40;;;;;;5072640;28;20048;-77
2021/07/22 17:33:40;;;;;;;5.28;3.20;;;33.40;34.60;;;;;;5073494;28;20041;-76
2021/07/22 17:36:08;;;;;;;7.10;3.90;;;33.50;34.60;;;;;;5073222;28;20043;-77
2021/07/22 17:38:36;;;;;;;7.38;4.13;;;33.40;34.70;;;;;;5071598;28;20052;-77
2021/07/22 17:41:04;;;;;;;5.28;4.00;;;33.40;34.90;;;;;;5073158;28;20044;-77
2021/07/22 17:43:32;;;;;;;6.82;4.13;;;33.40;34.90;;;;;;5071277;28;20370;-76
2021/07/22 17:45:59;;;;;;;6.95;4.00;;;33.50;34.80;;;;;;5071923;28;20045;-77
2021/07/22 17:48:32;;;;;;;7.65;4.00;;;33.50;34.70;;;;;;5071598;28;20100;-77
2021/07/22 17:51:01;;;;;;;7.80;3.70;;;33.40;34.70;;;;;;5038315;28;20059;-78
2021/07/22 17:53:28;;;;;;;6.82;3.55;;;33.30;34.60;;;;;;5070729;28;20516;-77
2021/07/22 17:55:57;;;;;;;4.95;3.90;;;;;;;;;;5067939;28;20041;-78
2021/07/22 17:58:25;;;;;;;6.68;4.00;;;33.10;34.40;;;;;;5052357;28;20351;-77
2021/07/22 18:00:53;;;;;;;5.28;3.78;;;33.10;34.70;;;;;;5048896;28;20383;-77
2021/07/22 18:03:21;;;;;;;8.70;4.18;;;33.30;34.50;;;;;;5018821;28;20422;-77
2021/07/22 18:05:50;;;;;;;8.18;4.20;;;33.30;34.30;;;;;;5051084;28;20045;-78
2021/07/22 18:08:18;;;;;;;7.30;4.20;;;33.30;34.40;;;;;;5052057;28;20485;-78
2021/07/22 18:10:46;;;;;;;9.27;4.22;;;33.20;34.60;;;;;;5066633;28;20036;-77
2021/07/22 18:13:14;;;;;;;27.30;13.25;;;33.10;34.80;;;;;;5062689;28;20056;-78
2021/07/22 18:15:42;;;;;;;7.78;4.28;;;33.10;35.10;;;;;;5061173;28;20053;-78
2021/07/22 18:18:10;;;;;;;7.68;4.40;;;33.00;35.10;;;;;;5055125;28;20457;-78
2021/07/22 18:20:56;;;;;;;11.30;4.28;;;32.90;35.30;;;;;;5054703;28;20055;-77
2021/07/22 18:23:24;;;;;;;8.82;4.38;;;32.80;35.50;;;;;;5053642;28;20056;-77
2021/07/22 18:25:52;;;;;;;12.07;4.45;;;32.50;35.90;;;;;;5051540;28;20061;-78
2021/07/22 18:28:21;;;;;;;8.23;4.32;;;32.30;36.10;;;;;;5070652;28;20040;-78
2021/07/22 18:31:10;;;;;;;9.52;4.68;;;31.90;36.50;;;;;;5068689;28;20049;-77
2021/07/22 18:34:05;;;;;;;9.68;4.32;;;31.40;37.00;;;;;;5070932;28;20037;-77
2021/07/22 18:36:56;;;;;;;10.13;4.50;;;30.80;37.70;;;;;;5062296;28;20422;-80
2021/07/22 18:39:25;;;;;;;5.68;3.97;;;30.30;38.60;;;;;;5060669;28;20497;-78
2021/07/22 18:41:54;;;;;;;8.35;4.25;;;29.80;39.10;;;;;;5068384;28;20049;-78
2021/07/22 18:44:22;;;;;;;9.50;4.20;;;29.60;39.40;;;;;;5050520;28;20060;-78
2021/07/22 18:46:51;;;;;;;11.13;4.38;;;29.30;39.80;;;;;;5051296;28;20393;-79
2021/07/22 18:49:20;;;;;;;6.88;3.97;;;29.00;40.10;;;;;;5064909;28;20066;-78
2021/07/22 18:51:48;;;;;;;11.40;4.63;;;28.80;40.50;;;;;;5068825;28;20573;-78
2021/07/22 18:54:15;;;;;;;10.88;4.70;;;28.60;41.00;;;;;;5068546;28;20053;-78
2021/07/22 18:56:47;;;;;;;9.50;4.22;;;28.40;41.50;;;;;;5056955;28;20056;-78
2021/07/22 18:59:15;;;;;;;11.10;4.85;;;28.30;42.20;;;;;;5067901;28;20066;-78
2021/07/22 19:01:43;;;;;;;11.30;4.75;;;28.20;42.70;;;;;;5067998;28;20055;-77
2021/07/22 19:04:11;;;;;;;9.25;4.25;;;28.10;43.40;;;;;;5065952;28;20051;-77
2021/07/22 19:06:39;;;;;;;12.32;4.57;;;28.00;44.10;;;;;;5068680;28;20062;-78
2021/07/22 19:09:07;;;;;;;11.45;5.30;;;27.90;44.70;;;;;;5053191;28;20056;-77
2021/07/22 19:11:35;;;;;;;15.90;5.70;;;27.80;44.80;;;;;;5050171;28;20402;-77
2021/07/22 19:14:04;;;;;;;14.57;5.38;;;27.70;45.10;;;;;;5051370;28;20032;-78
2021/07/22 19:16:32;;;;;;;11.77;5.30;;;27.60;46.00;;;;;;5051059;28;20061;-77
2021/07/22 19:19:01;;;;;;;11.88;5.63;;;27.40;46.50;;;;;;5055282;28;20076;-78
2021/07/22 19:21:28;;;;;;;11.23;5.82;;;27.30;47.20;;;;;;5059801;28;20048;-78
2021/07/22 19:23:56;;;;;;;13.60;5.85;;;27.20;47.70;;;;;;5063182;28;20037;-76
2021/07/22 19:26:25;;;;;;;10.35;5.50;;;27.00;47.90;;;;;;5057548;28;20059;-78
2021/07/22 19:28:53;;;;;;;13.13;5.90;;;26.80;48.20;;;;;;5062118;28;20036;-77
2021/07/22 19:31:21;;;;;;;12.55;6.22;;;26.80;48.60;;;;;;5059303;28;20041;-78
2021/07/22 19:33:49;;;;;;;13.50;5.53;;;26.60;49.20;;;;;;5062483;28;20520;-78
2021/07/22 19:36:17;;;;;;;10.85;4.13;;;26.50;49.40;;;;;;5058097;28;20051;-78
2021/07/22 19:38:45;;;;;;;6.43;3.90;;;26.40;47.90;;;;;;5058457;28;20076;-78
2021/07/22 19:41:13;;;;;;;6.63;4.00;;;26.40;47.10;;;;;;5057282;28;20144;-78
2021/07/22 19:43:41;;;;;;;11.45;4.50;;;26.30;46.40;;;;;;5054025;28;20051;-78
2021/07/22 19:46:09;;;;;;;7.97;4.15;;;26.30;46.30;;;;;;5050414;28;20045;-79
2021/07/22 19:48:36;;;;;;;8.02;4.60;;;26.10;46.50;;;;;;5049679;28;20045;-78
2021/07/22 19:51:05;;;;;;;8.18;4.03;;;26.00;46.90;;;;;;5050028;28;20093;-78
2021/07/22 19:53:33;;;;;;;6.05;4.07;;;25.90;47.60;;;;;;5050612;28;20045;-78
2021/07/22 19:56:01;;;;;;;8.93;4.30;;;25.90;48.00;;;;;;5049724;28;20045;-78
2021/07/22 19:58:29;;;;;;;10.52;5.70;;;25.80;48.30;;;;;;5048360;28;20061;-77
2021/07/22 20:00:57;;;;;;;7.50;4.20;;;25.70;48.70;;;;;;5052344;28;20037;-77
2021/07/22 20:03:25;;;;;;;6.90;4.55;;;25.60;49.00;;;;;;5069129;28;20041;-78
2021/07/22 20:05:53;;;;;;;8.93;4.90;;;25.50;49.40;;;;;;5068635;28;20048;-78
2021/07/22 20:08:20;;;;;;;9.13;4.85;;;25.40;50.00;;;;;;5070863;28;20369;-79
2021/07/22 20:10:48;;;;;;;6.47;5.18;;;25.40;50.40;;;;;;5069613;28;20055;-77
2021/07/22 20:13:17;;;;;;;11.93;4.95;;;25.30;50.80;;;;;;5072693;28;20294;-78
2021/07/22 20:15:45;;;;;;;9.68;5.35;;;25.20;51.40;;;;;;5073008;28;20416;-79
2021/07/22 20:18:14;;;;;;;10.05;5.43;;;25.20;51.80;;;;;;5074884;28;20409;-78
2021/07/22 20:20:42;;;;;;;12.52;4.72;;;25.10;52.30;;;;;;5075838;28;20049;-78
2021/07/22 20:23:09;;;;;;;7.82;5.05;;;25.00;52.80;;;;;;5075492;28;20044;-78
2021/07/22 20:25:37;;;;;;;8.77;4.82;;;24.90;53.20;;;;;;5072662;28;20048;-78
2021/07/22 20:28:05;;;;;;;8.10;5.13;;;24.80;53.50;;;;;;5072522;28;20053;-77
2021/07/22 20:30:33;;;;;;;13.98;5.65;;;24.80;54.00;;;;;;5074588;28;20048;-78
2021/07/22 20:33:02;;;;;;;8.98;5.20;;;24.80;54.50;;;;;;5073896;28;20048;-79
2021/07/22 20:35:29;;;;;;;9.18;5.30;;;24.60;54.70;;;;;;5074668;28;20048;-78
2021/07/22 20:37:58;;;;;;;7.95;5.30;;;24.60;54.90;;;;;;5072683;28;20051;-78
2021/07/22 20:40:26;;;;;;;10.63;5.30;;;24.50;55.00;;;;;;5060769;28;20041;-78
2021/07/22 20:42:54;;;;;;;9.45;5.28;;;24.40;55.30;;;;;;5036265;28;20045;-78
2021/07/22 20:45:21;;;;;;;10.45;5.70;;;24.30;55.70;;;;;;5054383;28;20041;-78
2021/07/22 20:47:49;;;;;;;8.00;5.75;;;24.30;56.10;;;;;;5057007;28;20047;-78
2021/07/22 20:50:18;;;;;;;10.07;5.35;;;24.20;56.50;;;;;;5062662;28;20052;-79
2021/07/22 20:52:46;;;;;;;11.98;5.88;;;24.10;57.00;;;;;;5071836;28;20056;-78
2021/07/22 20:55:14;;;;;;;7.25;5.82;;;23.90;57.40;;;;;;5072415;28;20059;-78
2021/07/22 20:57:42;;;;;;;13.63;6.13;;;23.80;57.60;;;;;;5073113;28;20052;-78
2021/07/22 21:00:10;;;;;;;12.50;6.18;;;23.80;57.90;;;;;;5073539;28;20044;-76
2021/07/22 21:02:39;;;;;;;12.57;6.40;;;23.70;58.50;;;;;;5070485;28;20060;-78
2021/07/22 21:05:10;;;;;;;17.05;6.80;;;23.70;59.00;;;;;;5072473;28;20524;-78
2021/07/22 21:07:39;;;;;;;15.20;6.47;;;23.50;59.50;;;;;;5071499;28;20468;-78
2021/07/22 21:10:08;;;;;;;16.08;6.82;;;23.40;60.00;;;;;;5054578;28;20053;-78
2021/07/22 21:12:36;;;;;;;10.75;6.78;;;23.30;60.60;;;;;;5053364;28;20041;-78
2021/07/22 21:15:05;;;;;;;13.73;6.55;;;23.10;61.30;;;;;;5051131;28;20053;-77
2021/07/22 21:17:32;;;;;;;13.35;7.95;;;23.00;61.90;;;;;;5033796;28;20067;-77
2021/07/22 21:20:00;;;;;;;10.90;6.65;;;22.90;62.30;;;;;;5066582;28;20063;-78
2021/07/22 21:22:28;;;;;;;12.63;6.63;;;22.80;62.60;;;;;;5071983;28;20048;-78
2021/07/22 21:24:55;;;;;;;13.57;6.80;;;22.70;62.70;;;;;;5071509;28;20060;-77
2021/07/22 21:27:23;;;;;;;7.40;5.97;;;22.70;62.90;;;;;;5071887;28;20048;-77
2021/07/22 21:29:51;;;;;;;9.75;6.57;;;22.70;62.60;;;;;;5072613;28;20044;-77
2021/07/22 21:32:19;;;;;;;8.65;6.35;;;22.70;62.20;;;;;;5069079;28;20516;-78
2021/07/22 21:34:47;;;;;;;11.05;6.72;;;22.80;61.90;;;;;;5072783;28;20055;-77
2021/07/22 21:37:14;;;;;;;10.40;6.20;;;22.90;61.50;;;;;;5072095;28;20417;-79
2021/07/22 21:39:43;;;;;;;11.10;6.70;;;22.90;61.10;;;;;;5070823;28;20053;-77
2021/07/22 21:42:11;;;;;;;10.15;6.57;;;22.90;61.10;;;;;;5070320;28;20048;-78
2021/07/22 21:44:42;;;;;;;11.07;6.57;;;22.90;61.10;;;;;;5069553;28;20044;-79
2021/07/22 21:47:09;;;;;;;11.68;6.57;;;22.90;61.30;;;;;;5071389;28;20056;-77
2021/07/22 21:49:37;;;;;;;10.30;6.22;;;22.80;61.50;;;;;;5064932;28;20060;-78
2021/07/22 21:52:05;;;;;;;9.90;6.25;;;22.80;61.50;;;;;;5069781;28;20052;-78
2021/07/22 21:54:33;;;;;;;12.13;7.53;;;22.80;61.50;;;;;;5071239;28;20056;-77
2021/07/22 21:57:01;;;;;;;13.95;7.60;;;22.90;61.90;;;;;;5068954;28;20052;-79
2021/07/22 21:59:29;;;;;;;13.27;8.07;;;22.90;62.30;;;;;;5069893;28;20053;-78
2021/07/22 22:01:57;;;;;;;17.02;8.77;;;22.90;62.70;;;;;;5069908;28;20049;-77
2021/07/22 22:04:24;;;;;;;21.65;10.82;;;22.90;63.20;;;;;;5070389;28;20049;-77
2021/07/22 22:06:52;;;;;;;18.10;11.27;;;22.80;63.70;;;;;;5070888;28;20048;-76
2021/07/22 22:09:20;;;;;;;17.30;10.52;;;22.80;64.90;;;;;;5071026;28;20048;-78
2021/07/22 22:11:48;;;;;;;19.25;9.98;;;22.80;65.00;;;;;;5070464;28;20049;-78
2021/07/22 22:14:15;;;;;;;15.80;9.38;;;22.70;65.50;;;;;;5070753;28;20067;-78
2021/07/22 22:16:43;;;;;;;20.15;9.43;;;22.60;65.80;;;;;;5069347;28;20432;-78
2021/07/22 22:19:11;;;;;;;18.80;9.88;;;22.50;66.40;;;;;;5070529;28;20037;-78
2021/07/22 22:21:39;;;;;;;14.85;8.63;;;22.50;66.70;;;;;;5071610;28;20366;-78
2021/07/22 22:24:06;;;;;;;15.77;8.20;;;22.40;67.10;;;;;;5070434;28;20037;-77
2021/07/22 22:26:34;;;;;;;14.68;8.32;;;22.30;67.50;;;;;;5071699;28;20532;-78
2021/07/22 22:29:02;;;;;;;12.82;7.72;;;22.30;67.70;;;;;;5070878;28;20052;-76
2021/07/22 22:31:30;;;;;;;18.13;7.97;;;22.20;68.00;;;;;;5070656;28;20390;-77
2021/07/22 22:33:59;;;;;;;12.93;7.70;;;22.20;68.20;;;;;;5071374;28;20071;-76
2021/07/22 22:36:27;;;;;;;13.57;7.43;;;22.10;68.30;;;;;;5069940;28;20036;-78
2021/07/22 22:38:56;;;;;;;12.30;7.53;;;22.10;68.60;;;;;;5071267;28;20059;-78
2021/07/22 22:41:26;;;;;;;15.13;7.63;;;22.10;68.60;;;;;;5049623;28;20041;-77
2021/07/22 22:43:54;;;;;;;11.85;7.57;;;22.00;68.80;;;;;;5069591;28;20048;-79
2021/07/22 22:46:22;;;;;;;16.52;7.95;;;22.00;69.00;;;;;;5070235;28;20044;-77
2021/07/22 22:48:50;;;;;;;12.13;8.05;;;22.00;69.10;;;;;;5070806;28;20051;-77
2021/07/22 22:51:19;;;;;;;16.85;7.70;;;22.00;69.40;;;;;;5069562;28;20045;-78
2021/07/22 22:53:46;;;;;;;14.23;8.25;;;22.00;69.60;;;;;;5071373;28;20041;-78
2021/07/22 22:56:14;;;;;;;11.52;7.78;;;21.90;69.50;;;;;;5071481;28;20056;-78
2021/07/22 22:58:42;;;;;;;12.82;8.40;;;21.90;69.60;;;;;;5069840;28;20556;-78
2021/07/22 23:01:10;;;;;;;19.05;7.97;;;21.90;69.70;;;;;;5068643;28;20052;-78
2021/07/22 23:03:38;;;;;;;13.73;8.15;;;21.80;69.70;;;;;;5070681;28;20393;-78
2021/07/22 23:06:05;;;;;;;15.77;7.78;;;21.90;69.80;;;;;;5053089;28;20045;-77
2021/07/22 23:08:33;;;;;;;14.50;8.40;;;21.80;69.80;;;;;;5070574;28;20052;-78
2021/07/22 23:11:01;;;;;;;14.35;7.75;;;21.80;69.80;;;;;;5070952;28;20048;-77
2021/07/22 23:13:29;;;;;;;14.85;8.10;;;21.80;69.80;;;;;;5069265;28;20040;-78
2021/07/22 23:15:57;;;;;;;18.67;8.82;;;21.80;69.70;;;;;;5068437;28;20044;-78
2021/07/22 23:18:25;;;;;;;14.02;8.38;;;21.90;69.70;;;;;;5068429;28;20041;-78
2021/07/22 23:20:53;;;;;;;13.20;8.10;;;21.90;69.60;;;;;;5069469;28;20048;-79
2021/07/22 23:23:21;;;;;;;10.85;7.80;;;21.80;69.50;;;;;;5057233;28;20100;-78
2021/07/22 23:25:48;;;;;;;12.65;8.27;;;21.80;69.30;;;;;;5068809;28;20056;-78
2021/07/22 23:28:16;;;;;;;13.93;8.63;;;21.80;69.30;;;;;;5069872;28;20060;-78
2021/07/22 23:30:46;;;;;;;15.82;8.73;;;21.80;69.30;;;;;;5065504;28;20040;-78
2021/07/22 23:33:14;;;;;;;12.82;8.80;;;21.80;69.30;;;;;;5069764;28;20044;-79
2021/07/22 23:36:02;;;;;;;15.00;8.68;;;21.70;69.30;;;;;;5070139;28;20417;-78
2021/07/22 23:38:30;;;;;;;15.15;8.55;;;21.60;69.30;;;;;;5070409;28;20056;-77
2021/07/22 23:40:57;;;;;;;10.40;7.97;;;21.50;69.40;;;;;;5069643;28;20052;-78
2021/07/22 23:43:28;;;;;;;12.77;8.48;;;21.40;69.50;;;;;;5069649;28;20047;-77
2021/07/22 23:45:56;;;;;;;16.08;8.32;;;21.30;69.60;;;;;;5070074;28;20048;-77
2021/07/22 23:48:24;;;;;;;12.48;8.73;;;21.30;69.70;;;;;;5072459;28;20045;-79
2021/07/22 23:50:52;;;;;;;14.27;9.48;;;21.30;69.90;;;;;;5073763;28;20036;-78
2021/07/22 23:53:22;;;;;;;16.10;8.68;;;21.20;69.90;;;;;;5074550;28;20040;-78
2021/07/22 23:55:57;;;;;;;14.20;8.60;;;21.00;70.00;;;;;;5083254;28;20048;-79
2021/07/22 23:58:25;;;;;;;16.88;8.32;;;21.00;70.00;;;;;;5065011;28;20546;-77
